Time;durP1;ratioP1;P1;durP2;ratioP2;P2;SDS_P1;SDS_P2;PMS_P1;PMS_P2;Temp;Humidity;BMP_temperature;BMP_pressure;BME280_temperature;BME280_humidity;BME280_pressure;Samples;Min_cycle;Max_cycle;Signal;HPM_P1;HPM_P2
2023/10/21 00:00:27;;;;;;;;;;;19.30;46.30;;;;;;5045838;28;20438;-57
2023/10/21 00:02:53;;;;;;;;;;;19.30;46.20;;;;;;5049755;28;19976;-56
2023/10/21 00:05:20;;;;;;;;;;;19.30;46.20;;;;;;5049919;28;19928;-55
2023/10/21 00:07:47;;;;;;;;;;;19.30;46.20;;;;;;5050454;28;19924;-57
2023/10/21 00:10:14;;;;;;;;;;;19.30;46.20;;;;;;5051057;28;19920;-53
2023/10/21 00:12:40;;;;;;;;;;;19.30;46.20;;;;;;5049403;28;20362;-57
2023/10/21 00:15:09;;;;;;;;;;;19.30;46.20;;;;;;5049175;28;19924;-55
2023/10/21 00:17:36;;;;;;;;;;;19.30;46.20;;;;;;5044023;28;19920;-56
2023/10/21 00:20:03;;;;;;;;;;;19.30;46.20;;;;;;5049924;28;19932;-57
2023/10/21 00:22:30;;;;;;;;;;;19.20;46.10;;;;;;5049874;28;19921;-56
2023/10/21 00:24:56;;;;;;;;;;;19.30;46.10;;;;;;5049157;28;19951;-57
2023/10/21 00:27:23;;;;;;;;;;;19.30;46.10;;;;;;5034636;28;19925;-56
2023/10/21 00:29:50;;;;;;;;;;;19.30;46.10;;;;;;5049175;28;19929;-57
2023/10/21 00:32:18;;;;;;;;;;;19.30;46.10;;;;;;5046251;28;19929;-55
2023/10/21 00:34:45;;;;;;;;;;;19.30;46.10;;;;;;5048448;28;19921;-56
2023/10/21 00:37:12;;;;;;;;;;;19.30;46.10;;;;;;5050419;28;19925;-57
2023/10/21 00:39:39;;;;;;;;;;;19.30;46.10;;;;;;5043814;28;19996;-55
2023/10/21 00:42:06;;;;;;;;;;;19.30;46.10;;;;;;5049232;28;20041;-56
2023/10/21 00:44:32;;;;;;;;;;;19.20;46.00;;;;;;5050022;28;19929;-58
2023/10/21 00:46:59;;;;;;;;;;;19.30;46.00;;;;;;5049769;28;19924;-57
2023/10/21 00:49:27;;;;;;;;;;;19.20;45.90;;;;;;5048635;28;19933;-56
2023/10/21 00:51:54;;;;;;;;;;;19.30;46.00;;;;;;5046249;28;19967;-56
2023/10/21 00:54:21;;;;;;;;;;;19.20;45.90;;;;;;5044973;28;19986;-57
2023/10/21 00:56:48;;;;;;;;;;;19.20;45.90;;;;;;5049394;28;19990;-54
2023/10/21 00:59:14;;;;;;;;;;;19.20;45.90;;;;;;5048797;28;19928;-55
2023/10/21 01:01:43;;;;;;;;;;;19.20;45.90;;;;;;5048625;28;19921;-56
2023/10/21 01:04:10;;;;;;;;;;;19.20;45.80;;;;;;5046406;28;19921;-56
2023/10/21 01:06:38;;;;;;;;;;;19.20;45.80;;;;;;5031529;28;19975;-56
2023/10/21 01:09:06;;;;;;;;;;;19.20;45.80;;;;;;5047860;28;19920;-55
2023/10/21 01:11:32;;;;;;;;;;;19.20;45.80;;;;;;5045938;28;19921;-57
2023/10/21 01:13:59;;;;;;;;;;;19.20;45.80;;;;;;5046894;28;19921;-50
2023/10/21 01:16:28;;;;;;;;;;;19.20;45.80;;;;;;5049140;28;19921;-57
2023/10/21 01:18:54;;;;;;;;;;;19.20;45.80;;;;;;5050031;28;19921;-53
2023/10/21 01:21:21;;;;;;;;;;;19.20;45.80;;;;;;5048121;28;19928;-56
2023/10/21 01:23:49;;;;;;;;;;;19.20;45.80;;;;;;5046549;28;19932;-56
2023/10/21 01:26:16;;;;;;;;;;;19.20;45.80;;;;;;5053235;28;19920;-55
2023/10/21 01:28:43;;;;;;;;;;;19.20;45.80;;;;;;5052445;28;19925;-56
2023/10/21 01:31:10;;;;;;;;;;;19.20;45.80;;;;;;5052739;28;19921;-56
2023/10/21 01:33:36;;;;;;;;;;;19.20;45.70;;;;;;5052358;28;19925;-56
2023/10/21 01:36:03;;;;;;;;;;;19.20;45.70;;;;;;5052489;28;19971;-56
2023/10/21 01:38:30;;;;;;;;;;;19.20;45.80;;;;;;5052277;28;19920;-57
2023/10/21 01:40:59;;;;;;;;;;;19.20;45.70;;;;;;5052641;28;19981;-51
2023/10/21 01:43:25;;;;;;;;;;;19.20;45.70;;;;;;5051356;28;19924;-54
2023/10/21 01:45:52;;;;;;;;;;;19.20;45.80;;;;;;5053886;28;19921;-55
2023/10/21 01:48:19;;;;;;;;;;;19.20;45.70;;;;;;5052779;28;19929;-54
2023/10/21 01:50:46;;;;;;;;;;;19.20;45.70;;;;;;5052103;28;19928;-54
2023/10/21 01:53:13;;;;;;;;;;;19.20;45.70;;;;;;5053322;28;19921;-55
2023/10/21 01:55:40;;;;;;;;;;;19.20;45.70;;;;;;5052475;28;19920;-56
2023/10/21 01:58:08;;;;;;;;;;;19.20;45.70;;;;;;5047757;28;19921;-52
2023/10/21 02:00:35;;;;;;;;;;;19.20;45.70;;;;;;5052731;28;19921;-54
2023/10/21 02:03:02;;;;;;;;;;;19.20;45.70;;;;;;5050524;28;19951;-53
2023/10/21 02:05:29;;;;;;;;;;;19.20;45.70;;;;;;5050248;28;19932;-54
2023/10/21 02:07:56;;;;;;;;;;;19.20;45.70;;;;;;5052748;28;19921;-55
2023/10/21 02:10:22;;;;;;;;;;;19.20;45.70;;;;;;5052417;28;19921;-56
2023/10/21 02:12:49;;;;;;;;;;;19.20;45.70;;;;;;5048153;28;19956;-55
2023/10/21 02:15:17;;;;;;;;;;;19.20;45.70;;;;;;5050037;28;19921;-57
2023/10/21 02:17:45;;;;;;;;;;;19.20;45.70;;;;;;5052040;28;19955;-53
2023/10/21 02:20:12;;;;;;;;;;;19.20;45.70;;;;;;5052736;28;20306;-56
2023/10/21 02:22:39;;;;;;;;;;;19.20;45.70;;;;;;5051303;28;19943;-56
2023/10/21 02:25:08;;;;;;;;;;;19.20;45.70;;;;;;5034329;28;19978;-57
2023/10/21 02:27:34;;;;;;;;;;;19.20;45.70;;;;;;5052142;28;19943;-55
2023/10/21 02:30:01;;;;;;;;;;;19.20;45.70;;;;;;5051014;28;19928;-57
2023/10/21 02:32:29;;;;;;;;;;;19.20;45.70;;;;;;5051728;28;19928;-57
2023/10/21 02:34:56;;;;;;;;;;;19.20;45.70;;;;;;5050423;28;19966;-57
2023/10/21 02:37:24;;;;;;;;;;;19.20;45.70;;;;;;5052131;28;20012;-54
2023/10/21 02:39:51;;;;;;;;;;;19.20;45.70;;;;;;5046954;28;19956;-53
2023/10/21 02:42:18;;;;;;;;;;;19.20;45.60;;;;;;5051381;28;19992;-55
2023/10/21 02:44:45;;;;;;;;;;;19.20;45.70;;;;;;5051598;28;19924;-54
2023/10/21 02:47:10;;;;;;;;;;;19.20;45.70;;;;;;5046134;28;19921;-53
2023/10/21 02:49:39;;;;;;;;;;;19.20;45.70;;;;;;5048397;28;19943;-56
2023/10/21 02:52:05;;;;;;;;;;;19.20;45.70;;;;;;5050782;28;19925;-56
2023/10/21 02:54:32;;;;;;;;;;;19.20;45.70;;;;;;5052140;28;19921;-56
2023/10/21 02:56:59;;;;;;;;;;;19.20;45.70;;;;;;5051498;28;19921;-53
2023/10/21 02:59:26;;;;;;;;;;;19.20;45.60;;;;;;5052291;28;20262;-54
2023/10/21 03:01:53;;;;;;;;;;;19.20;45.60;;;;;;5050063;28;19928;-54
2023/10/21 03:04:20;;;;;;;;;;;19.20;45.60;;;;;;5052703;28;19925;-54
2023/10/21 03:06:48;;;;;;;;;;;19.20;45.70;;;;;;5050153;28;19974;-55
2023/10/21 03:09:16;;;;;;;;;;;19.20;45.60;;;;;;5051227;28;19920;-52
2023/10/21 03:11:43;;;;;;;;;;;19.20;45.60;;;;;;5045580;28;19927;-57
2023/10/21 03:14:09;;;;;;;;;;;19.20;45.70;;;;;;5044982;28;19921;-52
2023/10/21 03:16:36;;;;;;;;;;;19.20;45.60;;;;;;5050932;28;19925;-57
2023/10/21 03:19:04;;;;;;;;;;;19.20;45.60;;;;;;5052436;28;19920;-54
2023/10/21 03:21:30;;;;;;;;;;;19.20;45.60;;;;;;5050390;28;19924;-57
2023/10/21 03:23:58;;;;;;;;;;;19.20;45.70;;;;;;5050170;28;19979;-54
2023/10/21 03:26:25;;;;;;;;;;;19.20;45.60;;;;;;5051041;28;19951;-55
2023/10/21 03:28:52;;;;;;;;;;;19.20;45.60;;;;;;5050565;28;19997;-52
2023/10/21 03:31:19;;;;;;;;;;;19.20;45.60;;;;;;5050167;28;19932;-55
2023/10/21 03:33:46;;;;;;;;;;;19.20;45.60;;;;;;5050445;28;19921;-57
2023/10/21 03:36:13;;;;;;;;;;;19.20;45.60;;;;;;5050211;28;20019;-56
2023/10/21 03:38:40;;;;;;;;;;;19.20;45.70;;;;;;5050077;28;20343;-56
2023/10/21 03:41:08;;;;;;;;;;;19.20;45.60;;;;;;5046904;28;19927;-57
2023/10/21 03:43:35;;;;;;;;;;;19.20;45.70;;;;;;5048547;28;19928;-58
2023/10/21 03:46:02;;;;;;;;;;;19.20;45.70;;;;;;5048539;28;19940;-57
2023/10/21 03:48:29;;;;;;;;;;;19.20;45.70;;;;;;5049559;28;19925;-56
2023/10/21 03:51:01;;;;;;;;;;;19.20;45.70;;;;;;5049394;28;19924;-57
2023/10/21 03:53:29;;;;;;;;;;;19.20;45.70;;;;;;5044372;28;19927;-55
2023/10/21 03:55:55;;;;;;;;;;;19.20;45.70;;;;;;5047752;28;20386;-54
2023/10/21 03:58:23;;;;;;;;;;;19.20;45.70;;;;;;5044288;28;19921;-58
2023/10/21 04:00:50;;;;;;;;;;;19.20;45.70;;;;;;5049877;28;19951;-57
2023/10/21 04:03:17;;;;;;;;;;;19.20;45.70;;;;;;5049664;28;19955;-57
2023/10/21 04:05:44;;;;;;;;;;;19.20;45.70;;;;;;5050206;28;19932;-55
2023/10/21 04:08:11;;;;;;;;;;;19.20;45.70;;;;;;5050812;28;19925;-57
2023/10/21 04:10:38;;;;;;;;;;;19.20;45.70;;;;;;5049540;28;20297;-57
2023/10/21 04:13:05;;;;;;;;;;;19.20;45.70;;;;;;5047868;28;19927;-56
2023/10/21 04:15:33;;;;;;;;;;;19.20;45.70;;;;;;5049418;28;20427;-56
2023/10/21 04:18:00;;;;;;;;;;;19.20;45.70;;;;;;5047811;28;20000;-56
2023/10/21 04:20:26;;;;;;;;;;;19.20;45.70;;;;;;5048529;28;19929;-56
2023/10/21 04:22:53;;;;;;;;;;;19.20;45.70;;;;;;5048688;28;19921;-57
2023/10/21 04:25:21;;;;;;;;;;;19.20;45.70;;;;;;5050901;28;19921;-56
2023/10/21 04:27:48;;;;;;;;;;;19.20;45.80;;;;;;5047820;28;19921;-53
2023/10/21 04:30:14;;;;;;;;;;;19.20;45.70;;;;;;5049238;28;19920;-54
2023/10/21 04:32:43;;;;;;;;;;;19.20;45.70;;;;;;5048448;28;19924;-56
2023/10/21 04:35:09;;;;;;;;;;;19.20;45.80;;;;;;5048441;28;19931;-57
2023/10/21 04:37:36;;;;;;;;;;;19.20;45.70;;;;;;5049852;28;19928;-56
2023/10/21 04:40:03;;;;;;;;;;;19.20;45.80;;;;;;5048611;28;19921;-57
2023/10/21 04:42:30;;;;;;;;;;;19.20;45.80;;;;;;5047455;28;19927;-55
2023/10/21 04:44:57;;;;;;;;;;;19.20;45.80;;;;;;5047554;28;19928;-56
2023/10/21 04:47:23;;;;;;;;;;;19.20;45.80;;;;;;5046673;28;19928;-55
2023/10/21 04:49:52;;;;;;;;;;;19.20;45.80;;;;;;5048119;28;19925;-53
2023/10/21 04:52:19;;;;;;;;;;;19.20;45.80;;;;;;5048447;28;19933;-57
2023/10/21 04:54:46;;;;;;;;;;;19.20;45.80;;;;;;5048311;28;19971;-56
2023/10/21 04:57:12;;;;;;;;;;;19.20;45.80;;;;;;5049946;28;20019;-54
2023/10/21 04:59:39;;;;;;;;;;;19.20;45.80;;;;;;5052808;28;19921;-56
2023/10/21 05:02:07;;;;;;;;;;;19.20;45.80;;;;;;5049479;28;19967;-56
2023/10/21 05:04:34;;;;;;;;;;;19.20;45.80;;;;;;5052344;28;19921;-54
2023/10/21 05:07:03;;;;;;;;;;;19.20;45.80;;;;;;5053454;28;19927;-55
2023/10/21 05:09:30;;;;;;;;;;;19.20;45.80;;;;;;5051727;28;20019;-56
2023/10/21 05:11:57;;;;;;;;;;;19.20;45.80;;;;;;5051506;28;19921;-53
2023/10/21 05:14:24;;;;;;;;;;;19.20;45.80;;;;;;5049471;28;19943;-54
2023/10/21 05:16:50;;;;;;;;;;;19.20;45.80;;;;;;5051755;28;19951;-48
2023/10/21 05:19:17;;;;;;;;;;;19.20;45.80;;;;;;5051480;28;19928;-49
2023/10/21 05:21:44;;;;;;;;;;;19.20;45.80;;;;;;5051783;28;19924;-51
2023/10/21 05:24:12;;;;;;;;;;;19.20;45.80;;;;;;5050011;28;19975;-56
2023/10/21 05:26:39;;;;;;;;;;;19.20;45.80;;;;;;5052693;28;19933;-54
2023/10/21 05:29:06;;;;;;;;;;;19.20;45.80;;;;;;5053244;28;19927;-51
2023/10/21 05:31:34;;;;;;;;;;;19.20;45.80;;;;;;5053183;28;19928;-54
2023/10/21 05:34:00;;;;;;;;;;;19.20;45.80;;;;;;5049700;28;19920;-53
2023/10/21 05:36:27;;;;;;;;;;;19.10;45.80;;;;;;5052322;28;19963;-52
2023/10/21 05:38:54;;;;;;;;;;;19.20;45.80;;;;;;5051680;28;19920;-54
2023/10/21 05:41:23;;;;;;;;;;;19.10;45.80;;;;;;5050830;28;19978;-53
2023/10/21 05:43:50;;;;;;;;;;;19.20;45.80;;;;;;5050862;28;20015;-53
2023/10/21 05:46:16;;;;;;;;;;;19.20;45.80;;;;;;5049798;28;19956;-57
2023/10/21 05:48:43;;;;;;;;;;;19.20;45.80;;;;;;5050453;28;19983;-52
2023/10/21 05:51:10;;;;;;;;;;;19.20;45.80;;;;;;5051776;28;19921;-55
2023/10/21 05:53:37;;;;;;;;;;;19.20;45.80;;;;;;5051462;28;19920;-57
2023/10/21 05:56:04;;;;;;;;;;;19.20;45.90;;;;;;5050045;28;19924;-55
2023/10/21 05:58:32;;;;;;;;;;;19.20;45.90;;;;;;5052910;28;19920;-56
2023/10/21 06:01:06;;;;;;;;;;;19.20;45.90;;;;;;5049410;28;19982;-57
2023/10/21 06:03:32;;;;;;;;;;;19.20;45.90;;;;;;5051447;28;20274;-55
2023/10/21 06:05:59;;;;;;;;;;;19.20;45.90;;;;;;5049253;28;19921;-55
2023/10/21 06:08:26;;;;;;;;;;;19.20;45.90;;;;;;5050475;28;19927;-57
2023/10/21 06:10:54;;;;;;;;;;;19.20;46.00;;;;;;5051804;28;19972;-55
2023/10/21 06:13:21;;;;;;;;;;;19.20;45.90;;;;;;5052048;28;19943;-53
2023/10/21 06:15:52;;;;;;;;;;;19.20;45.90;;;;;;5051788;28;19951;-50
2023/10/21 06:18:19;;;;;;;;;;;19.20;45.90;;;;;;5051317;28;20015;-53
2023/10/21 06:20:47;;;;;;;;;;;19.20;46.00;;;;;;5049692;28;19927;-55
2023/10/21 06:23:14;;;;;;;;;;;19.20;46.00;;;;;;5049918;28;19921;-51
2023/10/21 06:25:41;;;;;;;;;;;19.20;46.00;;;;;;5046393;28;20433;-56
2023/10/21 06:28:08;;;;;;;;;;;19.20;46.00;;;;;;5056679;28;19929;-58
2023/10/21 06:30:35;;;;;;;;;;;19.20;46.00;;;;;;5046830;28;19960;-56
2023/10/21 06:33:04;;;;;;;;;;;19.20;46.00;;;;;;5044494;28;19933;-53
2023/10/21 06:35:30;;;;;;;;;;;19.20;46.00;;;;;;5042243;28;19921;-54
2023/10/21 06:37:58;;;;;;;;;;;19.20;46.00;;;;;;5045798;28;19920;-51
2023/10/21 06:40:24;;;;;;;;;;;19.20;46.00;;;;;;5046302;28;19933;-52
2023/10/21 06:42:51;;;;;;;;;;;19.20;46.00;;;;;;5044979;28;19944;-53
2023/10/21 06:45:18;;;;;;;;;;;19.20;46.00;;;;;;5049000;28;19920;-55
2023/10/21 06:47:45;;;;;;;;;;;19.20;46.00;;;;;;5048964;28;19925;-53
2023/10/21 06:50:13;;;;;;;;;;;19.20;46.00;;;;;;5050542;28;19925;-53
2023/10/21 06:52:40;;;;;;;;;;;19.20;46.00;;;;;;5049798;28;19921;-51
2023/10/21 06:55:08;;;;;;;;;;;19.20;46.00;;;;;;5045128;28;19947;-50
2023/10/21 06:57:34;;;;;;;;;;;19.20;46.00;;;;;;5046132;28;19921;-52
2023/10/21 07:00:02;;;;;;;;;;;19.20;46.00;;;;;;5047378;28;19975;-55
2023/10/21 07:02:29;;;;;;;;;;;19.20;46.00;;;;;;5048711;28;20251;-56
2023/10/21 07:04:56;;;;;;;;;;;19.20;46.00;;;;;;5046468;28;19921;-53
2023/10/21 07:07:24;;;;;;;;;;;19.20;46.00;;;;;;5045359;28;20333;-51
2023/10/21 07:09:51;;;;;;;;;;;19.20;46.10;;;;;;5046914;28;19921;-54
2023/10/21 07:12:19;;;;;;;;;;;19.20;46.10;;;;;;5043134;28;20674;-55
2023/10/21 07:14:47;;;;;;;;;;;19.20;46.60;;;;;;5044142;28;19963;-56
2023/10/21 07:17:14;;;;;;;;;;;19.20;46.10;;;;;;5051148;28;19925;-53
2023/10/21 07:19:40;;;;;;;;;;;19.20;46.10;;;;;;5047776;28;19935;-57
2023/10/21 07:22:07;;;;;;;;;;;19.20;46.10;;;;;;5048799;28;19928;-56
2023/10/21 07:24:35;;;;;;;;;;;19.20;46.10;;;;;;5048240;28;19942;-55
2023/10/21 07:27:02;;;;;;;;;;;19.20;46.10;;;;;;5048793;28;19928;-51
2023/10/21 07:29:29;;;;;;;;;;;19.20;46.10;;;;;;5048821;28;19921;-58
2023/10/21 07:31:56;;;;;;;;;;;19.20;46.10;;;;;;5046911;28;19921;-51
2023/10/21 07:34:22;;;;;;;;;;;19.20;46.10;;;;;;5048669;28;19921;-57
2023/10/21 07:36:49;;;;;;;;;;;19.20;46.10;;;;;;5041983;28;20041;-55
2023/10/21 07:39:18;;;;;;;;;;;19.20;46.10;;;;;;5049422;28;19943;-54
2023/10/21 07:41:46;;;;;;;;;;;19.20;46.10;;;;;;5049139;28;19925;-55
2023/10/21 07:44:13;;;;;;;;;;;19.20;46.10;;;;;;5047472;28;19920;-55
2023/10/21 07:46:40;;;;;;;;;;;19.20;46.10;;;;;;5051130;28;20321;-54
2023/10/21 07:49:07;;;;;;;;;;;19.20;46.10;;;;;;5048886;28;19976;-56
2023/10/21 07:51:33;;;;;;;;;;;19.20;46.20;;;;;;5050654;28;19925;-54
2023/10/21 07:54:00;;;;;;;;;;;19.20;46.20;;;;;;5046052;28;19964;-56
2023/10/21 07:56:27;;;;;;;;;;;19.20;46.20;;;;;;5042558;28;20043;-55
2023/10/21 07:58:55;;;;;;;;;;;19.20;46.20;;;;;;5046211;28;19970;-55
2023/10/21 08:01:22;;;;;;;;;;;19.20;46.20;;;;;;5044866;28;19928;-57
2023/10/21 08:03:48;;;;;;;;;;;19.20;46.20;;;;;;5045835;28;20137;-57
2023/10/21 08:06:15;;;;;;;;;;;19.20;46.20;;;;;;5045752;28;19924;-52
2023/10/21 08:08:42;;;;;;;;;;;19.20;46.20;;;;;;5046317;28;19955;-53
2023/10/21 08:11:09;;;;;;;;;;;19.20;46.20;;;;;;5042512;28;20262;-51
2023/10/21 08:13:36;;;;;;;;;;;19.20;46.20;;;;;;5049739;28;19920;-56
2023/10/21 08:16:05;;;;;;;;;;;19.20;46.20;;;;;;5050761;28;19944;-54
2023/10/21 08:18:31;;;;;;;;;;;19.20;46.20;;;;;;5050578;28;19921;-56
2023/10/21 08:20:58;;;;;;;;;;;19.20;46.30;;;;;;5046893;28;19936;-56
2023/10/21 08:23:27;;;;;;;;;;;19.20;46.20;;;;;;5045792;28;19971;-56
2023/10/21 08:25:54;;;;;;;;;;;19.20;46.20;;;;;;5048499;28;19931;-53
2023/10/21 08:28:20;;;;;;;;;;;19.20;46.20;;;;;;5049446;28;19943;-53
2023/10/21 08:30:48;;;;;;;;;;;19.20;46.30;;;;;;5049513;28;19924;-56
2023/10/21 08:33:16;;;;;;;;;;;19.20;46.30;;;;;;5043943;28;20361;-53
2023/10/21 08:35:43;;;;;;;;;;;19.20;46.30;;;;;;5049553;28;19920;-57
2023/10/21 08:38:10;;;;;;;;;;;19.20;46.30;;;;;;5049292;28;19947;-54
2023/10/21 08:40:37;;;;;;;;;;;19.20;46.30;;;;;;5045372;28;19960;-56
2023/10/21 08:43:04;;;;;;;;;;;19.20;46.30;;;;;;5050500;28;19932;-52
2023/10/21 08:45:31;;;;;;;;;;;19.20;46.30;;;;;;5050411;28;20020;-59
2023/10/21 08:47:57;;;;;;;;;;;19.20;46.30;;;;;;5046835;28;20381;-54
2023/10/21 08:50:26;;;;;;;;;;;19.20;46.30;;;;;;5052935;28;19940;-56
2023/10/21 08:52:54;;;;;;;;;;;19.20;46.30;;;;;;5046408;28;19925;-55
2023/10/21 08:55:21;;;;;;;;;;;19.20;46.30;;;;;;5049203;28;19925;-52
2023/10/21 08:57:48;;;;;;;;;;;19.20;46.30;;;;;;5047629;28;19921;-54
2023/10/21 09:00:15;;;;;;;;;;;19.20;46.30;;;;;;5048422;28;20329;-57
2023/10/21 09:02:42;;;;;;;;;;;19.20;46.30;;;;;;5049507;28;19928;-53
2023/10/21 09:05:12;;;;;;;;;;;19.20;46.30;;;;;;5042890;28;19971;-60
2023/10/21 09:07:45;;;;;;;;;;;19.20;46.40;;;;;;5050129;28;19967;-61
2023/10/21 09:10:12;;;;;;;;;;;19.20;46.50;;;;;;5048100;28;19928;-60
2023/10/21 09:12:39;;;;;;;;;;;19.10;46.50;;;;;;5049221;28;19925;-59
2023/10/21 09:15:06;;;;;;;;;;;19.00;46.70;;;;;;5041418;28;20324;-60
2023/10/21 09:17:36;;;;;;;;;;;18.90;47.00;;;;;;5049818;28;19932;-66
2023/10/21 09:20:06;;;;;;;;;;;18.80;47.40;;;;;;5046353;28;19994;-68
2023/10/21 09:22:35;;;;;;;;;;;18.70;47.40;;;;;;5036468;28;19960;-69
2023/10/21 09:25:16;;;;;;;;;;;18.60;47.30;;;;;;5048468;28;19948;-69
2023/10/21 09:27:43;;;;;;;;;;;18.50;47.30;;;;;;5048419;28;19925;-65
2023/10/21 09:30:16;;;;;;;;;;;18.50;47.30;;;;;;5046937;28;19975;-68
2023/10/21 09:32:43;;;;;;;;;;;18.50;47.30;;;;;;5042466;28;19967;-68
2023/10/21 09:35:14;;;;;;;;;;;18.50;47.30;;;;;;5043621;28;19928;-68
2023/10/21 09:37:40;;;;;;;;;;;18.50;47.20;;;;;;5048715;28;20016;-64
2023/10/21 09:40:09;;;;;;;;;;;18.50;47.10;;;;;;5040004;28;19982;-65
2023/10/21 09:42:38;;;;;;;;;;;18.50;47.20;;;;;;5043972;28;19928;-68
2023/10/21 09:45:05;;;;;;;;;;;18.50;47.10;;;;;;5050494;28;19921;-68
2023/10/21 09:47:32;;;;;;;;;;;18.50;47.10;;;;;;5052461;28;19989;-67
2023/10/21 09:49:59;;;;;;;;;;;18.50;47.20;;;;;;5049681;28;19925;-68
2023/10/21 09:52:28;;;;;;;;;;;18.50;47.20;;;;;;5051826;28;19972;-66
2023/10/21 09:54:56;;;;;;;;;;;18.50;47.20;;;;;;5051312;28;19931;-67
2023/10/21 09:57:23;;;;;;;;;;;18.50;47.20;;;;;;5051929;28;19939;-65
2023/10/21 09:59:51;;;;;;;;;;;18.50;47.30;;;;;;5050931;28;19936;-68
2023/10/21 10:02:20;;;;;;;;;;;18.50;47.30;;;;;;5047625;28;19921;-68
2023/10/21 10:04:46;;;;;;;;;;;18.50;47.30;;;;;;5042521;28;19925;-66
2023/10/21 10:07:13;;;;;;;;;;;18.50;47.30;;;;;;5044795;28;19936;-65
2023/10/21 10:09:40;;;;;;;;;;;18.50;47.40;;;;;;5051339;28;19924;-67
2023/10/21 10:12:08;;;;;;;;;;;18.50;47.30;;;;;;5046692;28;20378;-67
2023/10/21 10:14:36;;;;;;;;;;;18.50;47.30;;;;;;5040199;28;20008;-67
2023/10/21 10:17:06;;;;;;;;;;;18.50;47.30;;;;;;5050808;28;19940;-66
2023/10/21 10:19:37;;;;;;;;;;;18.50;47.30;;;;;;5046747;28;19964;-66
2023/10/21 10:22:17;;;;;;;;;;;18.50;47.40;;;;;;5046511;28;19929;-66
2023/10/21 10:24:46;;;;;;;;;;;18.60;47.40;;;;;;5048200;28;19932;-66
2023/10/21 10:27:12;;;;;;;;;;;18.50;47.40;;;;;;5052211;28;19921;-68
2023/10/21 10:29:39;;;;;;;;;;;18.60;47.40;;;;;;5051742;28;19924;-67
2023/10/21 10:32:15;;;;;;;;;;;18.50;48.00;;;;;;5048692;28;19929;-67
2023/10/21 10:34:49;;;;;;;;;;;18.50;47.40;;;;;;5045056;28;20401;-64
2023/10/21 10:37:24;;;;;;;;;;;18.50;47.40;;;;;;5053615;28;19929;-67
2023/10/21 10:39:51;;;;;;;;;;;18.50;47.40;;;;;;5040940;28;19978;-67
2023/10/21 10:42:18;;;;;;;;;;;18.60;47.50;;;;;;5040233;28;19921;-67
2023/10/21 10:44:45;;;;;;;;;;;18.50;47.50;;;;;;5052179;28;19927;-66
2023/10/21 10:47:12;;;;;;;;;;;18.50;47.50;;;;;;5055834;28;19963;-68
2023/10/21 10:49:53;;;;;;;;;;;18.50;47.50;;;;;;5053730;28;19932;-67
2023/10/21 10:52:27;;;;;;;;;;;18.50;47.50;;;;;;5052934;28;19929;-67
2023/10/21 10:54:54;;;;;;;;;;;18.50;47.50;;;;;;5053451;28;19921;-68
2023/10/21 10:57:21;;;;;;;;;;;18.50;47.50;;;;;;5053838;28;20011;-67
2023/10/21 10:59:49;;;;;;;;;;;18.50;47.50;;;;;;5055755;28;19921;-64
2023/10/21 11:02:16;;;;;;;;;;;18.50;47.60;;;;;;5035593;28;19966;-67
2023/10/21 11:04:44;;;;;;;;;;;18.60;47.70;;;;;;5050832;28;19964;-67
2023/10/21 11:07:11;;;;;;;;;;;18.50;47.60;;;;;;5043844;28;19921;-68
2023/10/21 11:09:40;;;;;;;;;;;18.50;47.60;;;;;;5048757;28;19920;-68
2023/10/21 11:12:07;;;;;;;;;;;18.50;47.60;;;;;;5054136;28;19932;-67
2023/10/21 11:14:34;;;;;;;;;;;18.50;47.60;;;;;;5032149;28;19933;-68
2023/10/21 11:17:04;;;;;;;;;;;18.50;47.60;;;;;;5050609;28;19926;-67
2023/10/21 11:19:31;;;;;;;;;;;18.50;47.70;;;;;;5049096;28;19921;-66
2023/10/21 11:21:58;;;;;;;;;;;18.50;47.70;;;;;;5051368;28;19932;-67
2023/10/21 11:24:26;;;;;;;;;;;18.60;47.80;;;;;;5052474;28;19920;-67
2023/10/21 11:26:54;;;;;;;;;;;18.60;47.80;;;;;;5051999;28;20019;-67
2023/10/21 11:29:22;;;;;;;;;;;18.60;47.80;;;;;;5052944;28;19932;-67
2023/10/21 11:31:49;;;;;;;;;;;18.60;47.80;;;;;;5047499;28;19925;-67
2023/10/21 11:34:16;;;;;;;;;;;18.60;47.90;;;;;;5048013;28;19939;-67
2023/10/21 11:36:45;;;;;;;;;;;18.60;47.90;;;;;;5049404;28;19955;-65
2023/10/21 11:39:14;;;;;;;;;;;18.60;47.90;;;;;;5052750;28;20309;-66
2023/10/21 11:41:44;;;;;;;;;;;18.60;47.90;;;;;;5051395;28;19964;-67
2023/10/21 11:44:14;;;;;;;;;;;18.60;47.90;;;;;;5046818;28;19960;-68
2023/10/21 11:46:41;;;;;;;;;;;18.60;48.00;;;;;;5051463;28;19990;-67
2023/10/21 11:49:13;;;;;;;;;;;18.60;48.00;;;;;;5047274;28;19993;-67
2023/10/21 11:51:41;;;;;;;;;;;18.60;48.10;;;;;;5048109;28;19925;-67
2023/10/21 11:54:09;;;;;;;;;;;18.60;48.10;;;;;;5049411;28;19925;-67
2023/10/21 12:16:29;;;;;;;;;;;18.60;48.30;;;;;;4978793;28;19922;-68
2023/10/21 12:22:21;;;;;;;;;;;18.60;48.40;;;;;;5014587;28;19925;-67
2023/10/21 12:33:21;;;;;;;;;;;18.60;48.60;;;;;;5041538;28;19925;-67
2023/10/21 12:38:38;;;;;;;;;;;18.70;48.70;;;;;;5046346;28;19925;-64
2023/10/21 12:41:16;;;;;;;;;;;18.70;48.80;;;;;;5051135;28;19921;-66
2023/10/21 12:43:45;;;;;;;;;;;18.70;48.90;;;;;;5044145;28;20015;-63
2023/10/21 12:46:17;;;;;;;;;;;18.70;48.90;;;;;;5050496;28;19921;-67
2023/10/21 12:48:51;;;;;;;;;;;18.70;49.00;;;;;;5049586;28;19924;-67
2023/10/21 12:51:18;;;;;;;;;;;18.70;49.00;;;;;;5049875;28;19928;-67
2023/10/21 12:53:45;;;;;;;;;;;18.70;49.00;;;;;;5050117;28;19951;-67
2023/10/21 12:56:13;;;;;;;;;;;18.70;49.10;;;;;;5050036;28;19921;-66
2023/10/21 12:58:40;;;;;;;;;;;18.70;49.00;;;;;;5048339;28;19921;-66
2023/10/21 13:01:10;;;;;;;;;;;18.70;49.00;;;;;;5040791;28;19951;-67
2023/10/21 13:03:37;;;;;;;;;;;18.70;49.10;;;;;;5048251;28;19921;-66
2023/10/21 13:06:06;;;;;;;;;;;18.70;49.10;;;;;;5049702;28;19927;-67
2023/10/21 13:08:33;;;;;;;;;;;18.70;49.20;;;;;;5049979;28;19970;-67
2023/10/21 13:11:00;;;;;;;;;;;18.70;49.20;;;;;;5050281;28;19927;-66
2023/10/21 13:13:27;;;;;;;;;;;18.70;49.30;;;;;;5048241;28;19921;-65
2023/10/21 13:15:54;;;;;;;;;;;18.70;49.30;;;;;;5050088;28;19925;-67
2023/10/21 13:18:21;;;;;;;;;;;18.70;49.30;;;;;;5049191;28;20313;-67
2023/10/21 13:20:48;;;;;;;;;;;18.80;49.40;;;;;;5052954;28;19921;-67
2023/10/21 13:23:17;;;;;;;;;;;18.70;49.40;;;;;;5054302;28;19921;-67
2023/10/21 13:25:44;;;;;;;;;;;18.80;49.40;;;;;;5052723;28;19978;-66
2023/10/21 13:28:11;;;;;;;;;;;18.80;49.50;;;;;;5053716;28;19925;-67
2023/10/21 13:30:37;;;;;;;;;;;18.80;49.50;;;;;;5053444;28;19925;-66
2023/10/21 13:33:06;;;;;;;;;;;18.80;49.60;;;;;;5052061;28;19928;-67
2023/10/21 13:35:34;;;;;;;;;;;18.80;50.20;;;;;;5042439;28;19920;-66
2023/10/21 13:38:01;;;;;;;;;;;18.80;49.70;;;;;;5050225;28;19927;-64
2023/10/21 13:40:30;;;;;;;;;;;18.80;49.80;;;;;;5043515;28;19925;-64
2023/10/21 13:42:57;;;;;;;;;;;18.80;49.90;;;;;;5051116;28;20140;-65
2023/10/21 13:45:26;;;;;;;;;;;18.80;49.90;;;;;;5048771;28;19928;-64
2023/10/21 13:47:54;;;;;;;;;;;18.80;50.00;;;;;;5049044;28;20268;-65
2023/10/21 13:50:23;;;;;;;;;;;18.80;50.00;;;;;;5049918;28;19924;-66
2023/10/21 13:52:50;;;;;;;;;;;18.80;50.10;;;;;;5049902;28;19925;-66
2023/10/21 13:55:17;;;;;;;;;;;18.80;50.10;;;;;;5054701;28;19921;-66
2023/10/21 13:57:45;;;;;;;;;;;18.80;50.10;;;;;;5052345;28;20348;-66
2023/10/21 14:02:53;;;;;;;;;;;18.80;50.20;;;;;;5043445;28;19967;-65
2023/10/21 14:05:20;;;;;;;;;;;18.80;50.30;;;;;;5052723;28;19967;-66
2023/10/21 14:07:47;;;;;;;;;;;18.80;50.30;;;;;;5050068;28;19921;-65
2023/10/21 14:10:13;;;;;;;;;;;18.80;50.40;;;;;;5052910;28;19925;-66
2023/10/21 14:12:40;;;;;;;;;;;18.80;50.40;;;;;;5051826;28;19933;-63
2023/10/21 14:15:16;;;;;;;;;;;18.80;50.50;;;;;;5051546;28;19964;-66
2023/10/21 14:17:43;;;;;;;;;;;18.80;50.50;;;;;;5051381;28;19936;-66
2023/10/21 14:20:11;;;;;;;;;;;18.80;50.60;;;;;;5048028;28;20023;-66
2023/10/21 14:22:38;;;;;;;;;;;18.80;50.60;;;;;;5049009;28;19967;-65
2023/10/21 14:25:05;;;;;;;;;;;18.80;50.60;;;;;;5051447;28;19924;-65
2023/10/21 14:27:32;;;;;;;;;;;18.80;50.60;;;;;;5051735;28;19921;-65
2023/10/21 14:30:03;;;;;;;;;;;18.80;50.60;;;;;;5052292;28;19971;-64
2023/10/21 14:32:31;;;;;;;;;;;18.80;50.70;;;;;;5034569;28;19931;-65
2023/10/21 14:34:57;;;;;;;;;;;18.90;50.90;;;;;;5050252;28;19921;-66
2023/10/21 14:37:24;;;;;;;;;;;18.80;50.80;;;;;;5053303;28;19928;-66
2023/10/21 14:39:51;;;;;;;;;;;18.90;51.00;;;;;;5048800;28;19921;-66
2023/10/21 14:42:18;;;;;;;;;;;18.90;51.00;;;;;;5050010;28;19920;-67
2023/10/21 14:44:45;;;;;;;;;;;18.90;51.00;;;;;;5051749;28;19987;-65
2023/10/21 14:47:12;;;;;;;;;;;18.90;50.90;;;;;;5051527;28;19921;-67
2023/10/21 14:49:40;;;;;;;;;;;18.90;51.10;;;;;;5035412;28;19951;-59
2023/10/21 14:52:07;;;;;;;;;;;18.90;51.10;;;;;;5051424;28;19921;-58
2023/10/21 14:54:35;;;;;;;;;;;18.90;52.90;;;;;;5050982;28;19924;-58